Aviation Digital Data Service (ADDS)

Output produced by TAFs form (0815 UTC 01 November 2014)
found at http://aviationweather.gov/adds/tafs/
 
KTCC 010540Z 0106/0206 19010KT P6SM SCT200 
     FM011000 22011KT P6SM SCT200 
     FM011400 22012G22KT P6SM SCT100 
     FM011900 21020G28KT P6SM SCT200 
     FM020100 22013KT P6SM SCT200